Savannah — WDD9810 — position and weather

sailwx.info

Track history (hours):
 
Tides and Currents Weather Stations Pressure Air Temp Water Temp Dewpoint Dewpoint Depression Visibility Wind Speed Wind Dir Waves Ship Positions

Savannah

Owner: Crescent Towing & Salvage Co Inc, New Orleans, LA. More information available from US FCC via Universal Licensing System and Coast Guard Vessel Documentation Center.

Last reported at 2017-Oct-19 05:30 UTC. Time now 2017-Oct-19 05:36 UTC.
Position N 32°05' W 081°04'.

Length 28 m; draft 4.5 m.

Type: Tug. MMSI: 367316630.

Date/timePositionNaut miles runAvg speedWind from/ knotsBaromVisibWave heightAir tempDewpointWater temp
2017-Oct-19 05:30N 32°05' W 081°04'2 2.8
2017-Oct-19 04:58N 32°05' W 081°06'1 1.2
2017-Oct-19 04:30N 32°05' W 081°06'1 2.5
2017-Oct-19 03:57N 32°05' W 081°04'0 0.0
2017-Oct-19 03:27N 32°05' W 081°04'2 3.3
2017-Oct-19 03:00N 32°05' W 081°06'2 3.1
2017-Oct-19 02:30N 32°06' W 081°07'1 1.5
2017-Oct-19 02:00N 32°06' W 081°06'2 3.3
2017-Oct-19 01:21N 32°05' W 081°04'0 0.0
2017-Oct-19 01:00N 32°05' W 081°04'3 6.5
2017-Oct-19 00:30N 32°06' W 081°07'2 3.2
2017-Oct-18 23:52N 32°08' W 081°08'0 0.9
2017-Oct-18 23:28N 32°08' W 081°09'0 0.7
2017-Oct-18 23:00N 32°08' W 081°08'2 3.3
2017-Oct-18 22:30N 32°07' W 081°07'2 4.7
2017-Oct-18 22:00N 32°05' W 081°05'3 5.4
2017-Oct-18 21:30N 32°05' W 081°02'1 2.3
2017-Oct-18 21:00N 32°05' W 081°04'0 0.1
2017-Oct-18 17:03N 32°05' W 081°04'0 0.1
2017-Oct-18 16:57N 32°05' W 081°04'0 0.0
2017-Oct-18 16:15N 32°05' W 081°04'0 0.0
2017-Oct-18 15:57N 32°05' W 081°04'3 6.8
2017-Oct-18 15:30N 32°06' W 081°07'2 3.8
2017-Oct-18 14:56N 32°08' W 081°09'1 1.3
2017-Oct-18 14:00N 32°07' W 081°08'0 0.2
2017-Oct-18 13:27N 32°07' W 081°08'0 0.0
2017-Oct-18 12:57N 32°07' W 081°08'0 0.0
2017-Oct-18 12:27N 32°07' W 081°08'0 0.0
2017-Oct-18 11:51N 32°07' W 081°08'0 0.0
2017-Oct-18 11:09N 32°07' W 081°08'0 0.1
2017-Oct-18 10:57N 32°07' W 081°08'0 0.0
2017-Oct-18 10:30N 32°07' W 081°08'0 0.9
2017-Oct-18 09:58N 32°07' W 081°08'0 0.1
2017-Oct-18 09:21N 32°07' W 081°08'0 0.1
2017-Oct-18 08:51N 32°07' W 081°08'1 2.4
2017-Oct-18 08:30N 32°07' W 081°08'4 6.8
2017-Oct-18 07:58N 32°05' W 081°04'0 0.0
2017-Oct-18 07:28N 32°05' W 081°04'0 0.0
2017-Oct-18 06:58N 32°05' W 081°04'0 0.0
2017-Oct-18 06:28N 32°05' W 081°04'0 0.0
2017-Oct-18 05:40N 32°05' W 081°04'0 0.0
2017-Oct-18 05:28N 32°05' W 081°04'0 0.0
2017-Oct-18 04:58N 32°05' W 081°04'0 0.0
2017-Oct-18 04:16N 32°05' W 081°04'0 0.0
2017-Oct-18 03:46N 32°05' W 081°04'0 0.0
2017-Oct-18 03:28N 32°05' W 081°04'0 0.0
2017-Oct-18 02:58N 32°05' W 081°04'0 0.0
2017-Oct-18 02:28N 32°05' W 081°04'0 0.0
2017-Oct-18 01:58N 32°05' W 081°04'0 0.0
2017-Oct-18 01:28N 32°05' W 081°04'0 0.0
2017-Oct-18 00:58N 32°05' W 081°04'0 0.0
2017-Oct-18 00:28N 32°05' W 081°04'0 0.0
2017-Oct-17 23:52N 32°05' W 081°04'0 0.0
2017-Oct-17 23:28N 32°05' W 081°04'0 0.0
2017-Oct-17 22:58N 32°05' W 081°04'0 0.0
2017-Oct-17 22:28N 32°05' W 081°04'0 0.0
2017-Oct-17 22:00N 32°05' W 081°04'3 6.4
2017-Oct-17 21:30N 32°06' W 081°07'1 1.5
2017-Oct-17 20:55N 32°07' W 081°08'1 2.2
2017-Oct-17 20:30N 32°06' W 081°07'3 5.3
2017-Oct-17 19:55N 32°05' W 081°04'0 0.0
2017-Oct-17 19:25N 32°05' W 081°04'0 0.0
2017-Oct-17 18:55N 32°05' W 081°04'0 0.0
2017-Oct-17 18:25N 32°05' W 081°04'0 0.0
2017-Oct-17 17:55N 32°05' W 081°04'3 6.6
2017-Oct-17 17:30N 32°06' W 081°07'2 3.2
2017-Oct-17 16:58N 32°07' W 081°08'0 0.8
2017-Oct-17 16:30N 32°08' W 081°08'2 4.3
2017-Oct-17 16:00N 32°06' W 081°07'1 1.6
2017-Oct-17 15:30N 32°05' W 081°06'3 5.1
2017-Oct-17 15:00N 32°07' W 081°08'0 0.4
2017-Oct-17 14:20N 32°08' W 081°08'0 0.1
2017-Oct-17 13:56N 32°08' W 081°08'1 1.2
2017-Oct-17 13:30N 32°08' W 081°08'1 2.1
2017-Oct-17 13:00N 32°07' W 081°08'0 0.2
2017-Oct-17 12:24N 32°07' W 081°08'0 0.0
2017-Oct-17 11:54N 32°07' W 081°08'0 0.0
2017-Oct-17 11:24N 32°07' W 081°08'0 0.0
2017-Oct-17 11:00N 32°07' W 081°08'0 0.7
2017-Oct-17 10:30N 32°07' W 081°08'1 1.9
2017-Oct-17 09:59N 32°08' W 081°08'0 0.0
2017-Oct-17 09:29N 32°08' W 081°08'2 4.8
2017-Oct-17 09:00N 32°06' W 081°07'1 1.2
2017-Oct-17 08:30N 32°05' W 081°06'2 4.5
2017-Oct-17 08:00N 32°07' W 081°08'1 1.1
2017-Oct-17 07:30N 32°08' W 081°08'1 1.5
2017-Oct-17 07:00N 32°07' W 081°08'2 2.4
2017-Oct-17 06:23N 32°08' W 081°09'1 3.9
2017-Oct-17 06:00N 32°07' W 081°08'4 6.6
2017-Oct-17 05:26N 32°05' W 081°04'0 0.0
2017-Oct-17 04:56N 32°05' W 081°04'0 0.0
2017-Oct-17 04:26N 32°05' W 081°04'0 0.0
2017-Oct-17 03:56N 32°05' W 081°04'0 0.0
2017-Oct-17 03:08N 32°05' W 081°04'0 0.0
2017-Oct-17 02:56N 32°05' W 081°04'0 0.0
2017-Oct-17 02:26N 32°05' W 081°04'0 0.0
2017-Oct-17 01:56N 32°05' W 081°04'0 0.0
2017-Oct-17 01:26N 32°05' W 081°04'0 0.0
2017-Oct-17 00:56N 32°05' W 081°04'0 0.0
2017-Oct-17 00:26N 32°05' W 081°04'0 0.0
2017-Oct-16 23:56N 32°05' W 081°04'0 0.0
2017-Oct-16 23:26N 32°05' W 081°04'0 0.0
2017-Oct-16 22:56N 32°05' W 081°04'0 0.0
2017-Oct-16 22:26N 32°05' W 081°04'0 0.0
2017-Oct-16 21:50N 32°05' W 081°04'1 3.1
2017-Oct-16 21:30N 32°05' W 081°05'1 1.8
2017-Oct-16 20:54N 32°06' W 081°06'1 1.9
2017-Oct-16 20:30N 32°06' W 081°07'1 1.1
2017-Oct-16 20:01N 32°06' W 081°07'2 2.9
2017-Oct-16 19:29N 32°08' W 081°08'0 0.5
2017-Oct-16 18:58N 32°08' W 081°08'2 4.7
2017-Oct-16 18:30N 32°06' W 081°07'3 5.6
2017-Oct-16 18:00N 32°05' W 081°04'0 0.1
2017-Oct-16 17:19N 32°05' W 081°04'0 0.0
2017-Oct-16 16:55N 32°05' W 081°04'0 0.0
2017-Oct-16 16:25N 32°05' W 081°04'2 4.1
2017-Oct-16 16:01N 32°05' W 081°06'4 7.2
2017-Oct-16 15:30N 32°08' W 081°08'0 0.1
2017-Oct-16 14:54N 32°08' W 081°09'0 0.0
2017-Oct-16 14:30N 32°08' W 081°09'0 0.0
2017-Oct-16 13:30N 32°08' W 081°09'0 0.0
2017-Oct-16 13:00N 32°08' W 081°09'0 0.0
2017-Oct-16 12:30N 32°08' W 081°09'0 0.0
2017-Oct-16 12:00N 32°08' W 081°09'0 0.0
2017-Oct-16 11:30N 32°08' W 081°09'0 0.0
2017-Oct-16 11:00N 32°08' W 081°09'0 0.0
2017-Oct-16 10:06N 32°08' W 081°09'0 0.0
2017-Oct-16 10:00N 32°08' W 081°09'0 0.5
2017-Oct-16 09:28N 32°08' W 081°09'0 0.0
2017-Oct-16 08:58N 32°08' W 081°09'0 0.5
2017-Oct-16 08:30N 32°08' W 081°08'2 3.2
2017-Oct-16 08:00N 32°07' W 081°07'1 1.2
2017-Oct-16 07:30N 32°07' W 081°08'0 0.2
2017-Oct-16 07:00N 32°07' W 081°08'1 1.8
2017-Oct-16 06:21N 32°08' W 081°09'0 0.0
2017-Oct-16 05:51N 32°08' W 081°09'1 3.1
2017-Oct-16 05:30N 32°07' W 081°08'4 8.2
2017-Oct-16 05:00N 32°05' W 081°04'0 0.3
2017-Oct-16 04:23N 32°05' W 081°04'0 0.0
2017-Oct-16 03:59N 32°05' W 081°04'0 0.0
2017-Oct-16 03:17N 32°05' W 081°04'0 0.0
2017-Oct-16 02:58N 32°05' W 081°04'0 0.0
2017-Oct-16 02:22N 32°05' W 081°04'0 0.0
2017-Oct-16 01:40N 32°05' W 081°04'0 0.0
2017-Oct-16 01:29N 32°05' W 081°04'0 0.0
2017-Oct-16 00:58N 32°05' W 081°04'0 0.0
2017-Oct-16 00:28N 32°05' W 081°04'0 0.0
2017-Oct-15 23:58N 32°05' W 081°04'0 0.0
2017-Oct-15 23:28N 32°05' W 081°04'0 0.0
2017-Oct-15 22:58N 32°05' W 081°04'0 0.0
2017-Oct-15 22:28N 32°05' W 081°04'0 0.0
2017-Oct-15 21:59N 32°05' W 081°04'0 0.0
2017-Oct-15 21:23N 32°05' W 081°04'0 0.0
2017-Oct-15 20:59N 32°05' W 081°04'0 0.0
2017-Oct-15 20:28N 32°05' W 081°04'0 0.0
2017-Oct-15 19:58N 32°05' W 081°04'0 0.0
2017-Oct-15 19:28N 32°05' W 081°04'0 0.0
2017-Oct-15 18:58N 32°05' W 081°04'0 0.0
2017-Oct-15 18:28N 32°05' W 081°04'0 0.0
2017-Oct-15 17:58N 32°05' W 081°04'0 0.0
2017-Oct-15 17:28N 32°05' W 081°04'2 3.6
2017-Oct-15 17:00N 32°05' W 081°06'3 5.7
2017-Oct-15 16:31N 32°07' W 081°08'0 0.2
2017-Oct-15 16:00N 32°07' W 081°08'0 0.5
2017-Oct-15 15:30N 32°07' W 081°08'2 4.1
2017-Oct-15 15:00N 32°06' W 081°06'2 2.1
2017-Oct-15 13:56N 32°05' W 081°04'0 0.0
2017-Oct-15 13:26N 32°05' W 081°04'0 0.0
2017-Oct-15 12:56N 32°05' W 081°04'0 0.0
2017-Oct-15 12:30N 32°05' W 081°04'4 7.9
2017-Oct-15 12:00N 32°07' W 081°08'1 1.8
2017-Oct-15 11:15N 32°08' W 081°08'0 1.5
2017-Oct-15 11:00N 32°08' W 081°08'2 3.0
2017-Oct-15 10:30N 32°07' W 081°07'2 3.0
2017-Oct-15 09:57N 32°08' W 081°08'0 1.0
2017-Oct-15 09:30N 32°08' W 081°08'0 0.6
2017-Oct-15 08:52N 32°07' W 081°08'1 2.1
2017-Oct-15 08:30N 32°08' W 081°08'1 2.3
2017-Oct-15 08:00N 32°07' W 081°08'2 3.7
2017-Oct-15 07:28N 32°05' W 081°06'2 4.1
2017-Oct-15 06:59N 32°05' W 081°04'0 0.0
2017-Oct-15 06:29N 32°05' W 081°04'0 0.0
2017-Oct-15 05:59N 32°05' W 081°04'0 0.0
2017-Oct-15 05:23N 32°05' W 081°04'0 0.0
2017-Oct-15 04:59N 32°05' W 081°04'0 0.0
2017-Oct-15 04:29N 32°05' W 081°04'0 0.0
2017-Oct-15 03:59N 32°05' W 081°04'0 0.0
2017-Oct-15 03:29N 32°05' W 081°04'0 0.0
2017-Oct-15 02:59N 32°05' W 081°04'0 0.0
2017-Oct-15 02:29N 32°05' W 081°04'0 0.0
2017-Oct-15 01:59N 32°05' W 081°04'0 0.0
2017-Oct-15 01:29N 32°05' W 081°04'0 0.0
2017-Oct-15 00:59N 32°05' W 081°04'0 0.0
2017-Oct-15 00:23N 32°05' W 081°04'0 0.0
2017-Oct-14 23:59N 32°05' W 081°04'0 0.0
2017-Oct-14 23:23N 32°05' W 081°04'0 0.0
2017-Oct-14 22:59N 32°05' W 081°04'2 4.6
2017-Oct-14 22:30N 32°06' W 081°06'3 5.8
2017-Oct-14 21:59N 32°08' W 081°09'0 0.7
2017-Oct-14 21:26N 32°08' W 081°08'0 0.7
2017-Oct-14 21:00N 32°08' W 081°08'2 4.7
2017-Oct-14 20:30N 32°06' W 081°07'1 1.9
2017-Oct-14 20:00N 32°07' W 081°08'0 0.8
2017-Oct-14 19:30N 32°07' W 081°08'0 0.0
2017-Oct-14 19:00N 32°07' W 081°08'0 0.0
2017-Oct-14 18:30N 32°07' W 081°08'0 0.8
2017-Oct-14 18:00N 32°07' W 081°08'0 0.4
2017-Oct-14 17:25N 32°08' W 081°08'1 1.2
2017-Oct-14 16:55N 32°07' W 081°08'0 0.2
2017-Oct-14 16:30N 32°07' W 081°08'0 0.6
2017-Oct-14 15:57N 32°08' W 081°08'0 0.3
2017-Oct-14 15:30N 32°07' W 081°08'3 5.1
2017-Oct-14 15:00N 32°05' W 081°06'0 0.2
2017-Oct-14 14:30N 32°05' W 081°06'0 0.0
2017-Oct-14 14:00N 32°05' W 081°06'2 3.3
2017-Oct-14 13:30N 32°05' W 081°04'1 2.1
2017-Oct-14 13:00N 32°05' W 081°03'1 2.2
2017-Oct-14 12:27N 32°05' W 081°02'2 3.7
2017-Oct-14 11:55N 32°05' W 081°04'3 7.8
2017-Oct-14 11:30N 32°06' W 081°07'1 1.6
2017-Oct-14 10:49N 32°07' W 081°08'1 2.7
2017-Oct-14 10:30N 32°07' W 081°07'3 5.8
2017-Oct-14 09:55N 32°05' W 081°04'0 0.0
2017-Oct-14 09:25N 32°05' W 081°04'0 0.0
2017-Oct-14 08:55N 32°05' W 081°04'0 0.0
2017-Oct-14 08:25N 32°05' W 081°04'0 0.0
2017-Oct-14 07:55N 32°05' W 081°04'0 0.0
2017-Oct-14 07:25N 32°05' W 081°04'0 0.0
2017-Oct-14 06:49N 32°05' W 081°04'0 0.0
2017-Oct-14 06:13N 32°05' W 081°04'0 0.0
2017-Oct-14 05:55N 32°05' W 081°04'0 0.0
2017-Oct-14 05:25N 32°05' W 081°04'0 0.0
2017-Oct-14 04:55N 32°05' W 081°04'0 0.0
2017-Oct-14 04:25N 32°05' W 081°04'0 0.0
2017-Oct-14 03:55N 32°05' W 081°04'0 0.0
2017-Oct-14 03:25N 32°05' W 081°04'0 0.0
2017-Oct-14 02:55N 32°05' W 081°04'0 0.0
2017-Oct-14 02:25N 32°05' W 081°04'0 0.0
2017-Oct-14 01:55N 32°05' W 081°04'0 0.0
2017-Oct-14 01:25N 32°05' W 081°04'0 0.0
2017-Oct-14 00:49N 32°05' W 081°04'0 0.0
2017-Oct-14 00:25N 32°05' W 081°04'0 0.0
2017-Oct-13 23:55N 32°05' W 081°04'0 0.0
2017-Oct-13 23:13N 32°05' W 081°04'0 0.0
2017-Oct-13 22:55N 32°05' W 081°04'0 0.0
2017-Oct-13 22:25N 32°05' W 081°04'0 0.0
2017-Oct-13 21:55N 32°05' W 081°04'0 0.0
2017-Oct-13 21:25N 32°05' W 081°04'0 0.0
2017-Oct-13 20:55N 32°05' W 081°04'0 0.0
2017-Oct-13 20:25N 32°05' W 081°04'0 0.0
2017-Oct-13 20:01N 32°05' W 081°04'0 0.0
2017-Oct-13 19:31N 32°05' W 081°04'0 0.0
2017-Oct-13 18:55N 32°05' W 081°04'0 0.0
2017-Oct-13 18:25N 32°05' W 081°04'0 0.0
2017-Oct-13 17:55N 32°05' W 081°04'0 0.0
2017-Oct-13 17:13N 32°05' W 081°04'0 0.0
2017-Oct-13 16:55N 32°05' W 081°04'0 0.0
2017-Oct-13 16:25N 32°05' W 081°04'0 0.0
2017-Oct-13 15:55N 32°05' W 081°04'0 0.0
2017-Oct-13 15:25N 32°05' W 081°04'0 0.0
2017-Oct-13 14:55N 32°05' W 081°04'0 0.0
2017-Oct-13 14:25N 32°05' W 081°04'0 0.0
2017-Oct-13 13:58N 32°05' W 081°04'3 7.4
2017-Oct-13 13:30N 32°07' W 081°07'1 1.3
2017-Oct-13 12:57N 32°06' W 081°07'1 2.1
2017-Oct-13 12:30N 32°07' W 081°08'0 0.6
2017-Oct-13 11:53N 32°07' W 081°08'0 0.5
2017-Oct-13 11:25N 32°07' W 081°08'0 0.0
2017-Oct-13 11:01N 32°07' W 081°08'2 3.5
2017-Oct-13 10:30N 32°06' W 081°07'2 3.3
2017-Oct-13 09:46N 32°05' W 081°04'0 0.9
2017-Oct-13 09:26N 32°05' W 081°04'0 0.0
2017-Oct-13 08:50N 32°05' W 081°04'0 0.4
2017-Oct-13 08:26N 32°05' W 081°04'0 0.0
2017-Oct-13 07:56N 32°05' W 081°04'0 0.0
2017-Oct-13 07:26N 32°05' W 081°04'0 0.0
2017-Oct-13 06:50N 32°05' W 081°04'0 0.0
2017-Oct-13 06:20N 32°05' W 081°04'0 0.0
2017-Oct-13 05:56N 32°05' W 081°04'0 0.0
2017-Oct-13 05:26N 32°05' W 081°04'0 0.0
2017-Oct-13 04:56N 32°05' W 081°04'0 0.0
2017-Oct-13 04:26N 32°05' W 081°04'0 0.0
2017-Oct-13 03:56N 32°05' W 081°04'0 0.0
2017-Oct-13 03:26N 32°05' W 081°04'0 0.0
2017-Oct-13 02:56N 32°05' W 081°04'0 0.0
2017-Oct-13 02:26N 32°05' W 081°04'0 0.0
2017-Oct-13 01:56N 32°05' W 081°04'0 0.0
2017-Oct-13 01:08N 32°05' W 081°04'0 0.0
2017-Oct-13 00:50N 32°05' W 081°04'0 0.0
2017-Oct-13 00:26N 32°05' W 081°04'0 0.0
2017-Oct-12 23:56N 32°05' W 081°04'0 0.0
2017-Oct-12 23:26N 32°05' W 081°04'0 0.0
2017-Oct-12 22:56N 32°05' W 081°04'0 0.0
2017-Oct-12 22:26N 32°05' W 081°04'0 0.0
2017-Oct-12 21:56N 32°05' W 081°04'0 0.0
2017-Oct-12 21:26N 32°05' W 081°04'0 0.0
2017-Oct-12 20:50N 32°05' W 081°04'0 0.0
2017-Oct-12 20:26N 32°05' W 081°04'0 0.0
2017-Oct-12 19:56N 32°05' W 081°04'0 0.0
2017-Oct-12 19:26N 32°05' W 081°04'0 0.0
2017-Oct-12 18:56N 32°05' W 081°04'0 0.0
2017-Oct-12 18:26N 32°05' W 081°04'0 0.0
2017-Oct-12 18:00N 32°05' W 081°04'3 6.5
2017-Oct-12 17:30N 32°06' W 081°07'2 2.9
2017-Oct-12 17:00N 32°08' W 081°08'1 1.1
2017-Oct-12 16:30N 32°07' W 081°08'3 5.8
2017-Oct-12 16:00N 32°05' W 081°06'1 2.7
2017-Oct-12 15:28N 32°05' W 081°04'0 0.0
2017-Oct-12 14:40N 32°05' W 081°04'0 0.0
2017-Oct-12 14:28N 32°05' W 081°04'0 0.0
2017-Oct-12 13:52N 32°05' W 081°04'0 0.0
2017-Oct-12 13:28N 32°05' W 081°04'0 0.0
2017-Oct-12 12:52N 32°05' W 081°04'0 0.0
2017-Oct-12 12:28N 32°05' W 081°04'0 0.0
2017-Oct-12 11:52N 32°05' W 081°04'0 0.0
2017-Oct-12 11:22N 32°05' W 081°04'0 0.0
2017-Oct-12 10:58N 32°05' W 081°04'0 0.0
2017-Oct-12 10:22N 32°05' W 081°04'0 0.0
2017-Oct-12 09:52N 32°05' W 081°04'0 0.0
2017-Oct-12 09:28N 32°05' W 081°04'4 7.6
2017-Oct-12 09:01N 32°07' W 081°07'0 0.8
2017-Oct-12 08:29N 32°07' W 081°08'1 1.9
2017-Oct-12 08:01N 32°06' W 081°07'3 5.6
2017-Oct-12 07:31N 32°05' W 081°04'0 0.8
2017-Oct-12 06:57N 32°05' W 081°04'0 0.0
2017-Oct-12 06:27N 32°05' W 081°04'0 0.0
2017-Oct-12 05:57N 32°05' W 081°04'0 0.0
2017-Oct-12 05:27N 32°05' W 081°04'0 0.0
2017-Oct-12 04:57N 32°05' W 081°04'0 0.0
2017-Oct-12 04:27N 32°05' W 081°04'0 0.0
2017-Oct-12 03:51N 32°05' W 081°04'0 0.0
2017-Oct-12 03:27N 32°05' W 081°04'0 0.0
2017-Oct-12 02:57N 32°05' W 081°04'0 0.0
2017-Oct-12 02:27N 32°05' W 081°04'0 0.0
2017-Oct-12 01:51N 32°05' W 081°04'0 0.0
2017-Oct-12 01:27N 32°05' W 081°04'0 0.0
2017-Oct-12 00:57N 32°05' W 081°04'0 0.0
2017-Oct-12 00:27N 32°05' W 081°04'0 0.0
2017-Oct-11 23:57N 32°05' W 081°04'0 0.0
2017-Oct-11 23:27N 32°05' W 081°04'0 0.0
2017-Oct-11 22:57N 32°05' W 081°04'0 0.0
2017-Oct-11 22:27N 32°05' W 081°04'0 0.0
2017-Oct-11 21:57N 32°05' W 081°04'0 0.0
2017-Oct-11 21:27N 32°05' W 081°04'0 0.0
2017-Oct-11 20:51N 32°05' W 081°04'0 0.0
2017-Oct-11 20:27N 32°05' W 081°04'0 0.0
2017-Oct-11 19:57N 32°05' W 081°04'0 0.0
2017-Oct-11 19:21N 32°05' W 081°04'0 0.0
2017-Oct-11 18:57N 32°05' W 081°04'0 0.0
2017-Oct-10 20:05N 32°05' W 081°04'0 0.1
2017-Oct-10 20:00N 32°05' W 081°04'0 0.1
2017-Oct-10 19:21N 32°05' W 081°04'1 3.7
2017-Oct-10 19:00N 32°05' W 081°05'1 2.4
2017-Oct-10 18:29N 32°06' W 081°07'0 0.0
2017-Oct-10 17:59N 32°06' W 081°07'0 0.0
2017-Oct-10 17:29N 32°06' W 081°07'0 0.0
2017-Oct-10 16:59N 32°06' W 081°07'0 0.0
2017-Oct-10 16:29N 32°06' W 081°07'1 1.2
2017-Oct-10 16:00N 32°06' W 081°07'2 4.2
2017-Oct-10 15:30N 32°08' W 081°08'0 0.2
2017-Oct-10 15:00N 32°08' W 081°08'1 0.8
2017-Oct-10 13:45N 32°07' W 081°08'0 0.0
2017-Oct-10 13:27N 32°07' W 081°08'2 3.5
2017-Oct-10 12:49N 32°05' W 081°06'1 2.7
2017-Oct-10 12:31N 32°06' W 081°07'0 0.5
2017-Oct-10 12:00N 32°06' W 081°07'1 2.2
2017-Oct-10 11:30N 32°05' W 081°06'0 0.0
2017-Oct-10 11:00N 32°05' W 081°06'0 0.0
2017-Oct-10 10:30N 32°05' W 081°06'1 1.9
2017-Oct-10 10:00N 32°06' W 081°07'2 3.3
2017-Oct-10 09:25N 32°08' W 081°08'0 0.1
2017-Oct-10 09:00N 32°08' W 081°08'0 0.0
2017-Oct-10 08:26N 32°08' W 081°08'0 0.1
2017-Oct-10 07:56N 32°08' W 081°08'0 1.1
2017-Oct-10 07:28N 32°07' W 081°08'0 0.0
2017-Oct-10 06:58N 32°07' W 081°08'0 0.0
2017-Oct-10 06:22N 32°07' W 081°08'1 2.3
2017-Oct-10 06:00N 32°08' W 081°08'0 0.0
2017-Oct-10 05:28N 32°08' W 081°09'3 7.6
2017-Oct-10 05:00N 32°05' W 081°06'2 3.0
2017-Oct-10 04:25N 32°05' W 081°04'0 0.0
2017-Oct-10 03:55N 32°05' W 081°04'0 0.0
2017-Oct-10 03:25N 32°05' W 081°04'0 0.0
2017-Oct-10 02:55N 32°05' W 081°04'0 0.0
2017-Oct-10 02:25N 32°05' W 081°04'0 0.0
2017-Oct-10 01:55N 32°05' W 081°04'0 0.0
2017-Oct-10 01:25N 32°05' W 081°04'0 0.0
2017-Oct-10 00:55N 32°05' W 081°04'0 0.0
2017-Oct-10 00:25N 32°05' W 081°04'0 0.0
2017-Oct-09 23:55N 32°05' W 081°04'0 0.0
2017-Oct-09 23:25N 32°05' W 081°04'0 0.0
2017-Oct-09 22:55N 32°05' W 081°04'0 0.0
2017-Oct-09 22:25N 32°05' W 081°04'0 0.0
2017-Oct-09 21:55N 32°05' W 081°04'0 0.0
2017-Oct-09 21:25N 32°05' W 081°04'0 0.0
2017-Oct-09 20:55N 32°05' W 081°04'0 0.0
2017-Oct-09 20:25N 32°05' W 081°04'0 0.3
2017-Oct-09 20:00N 32°05' W 081°04'0 0.2
2017-Oct-09 19:26N 32°05' W 081°04'0 0.0
2017-Oct-09 18:56N 32°05' W 081°04'0 0.0
2017-Oct-09 18:30N 32°05' W 081°04'4 8.2
2017-Oct-09 18:00N 32°07' W 081°08'1 2.0
2017-Oct-09 17:28N 32°08' W 081°09'0 0.4
2017-Oct-09 17:00N 32°08' W 081°08'2 4.9
2017-Oct-09 16:30N 32°06' W 081°07'2 3.5
2017-Oct-09 16:00N 32°05' W 081°05'1 1.9
2017-Oct-09 15:26N 32°05' W 081°06'0 0.0
2017-Oct-09 14:56N 32°05' W 081°06'0 0.0
2017-Oct-09 14:26N 32°05' W 081°06'0 0.0
2017-Oct-09 13:38N 32°05' W 081°06'0 1.1
2017-Oct-09 13:30N 32°06' W 081°06'3 6.1
2017-Oct-09 12:59N 32°08' W 081°08'0 0.2
2017-Oct-09 12:29N 32°08' W 081°08'1 1.2
2017-Oct-09 12:00N 32°08' W 081°08'4 8.6
2017-Oct-09 11:30N 32°05' W 081°04'0 0.5
2017-Oct-09 10:59N 32°05' W 081°04'0 0.0
2017-Oct-09 10:23N 32°05' W 081°04'0 0.0
2017-Oct-09 10:00N 32°05' W 081°04'0 0.0
2017-Oct-09 09:30N 32°05' W 081°04'0 0.0
2017-Oct-09 08:53N 32°05' W 081°04'0 0.0
2017-Oct-09 08:29N 32°05' W 081°04'0 0.0
2017-Oct-09 07:59N 32°05' W 081°04'0 0.0
2017-Oct-09 07:23N 32°05' W 081°04'0 0.0
2017-Oct-09 06:59N 32°05' W 081°04'0 0.0
2017-Oct-09 06:29N 32°05' W 081°04'0 0.0
2017-Oct-09 05:59N 32°05' W 081°04'  
Track history (hours):
 
Tides and Currents Weather Stations Pressure Air Temp Water Temp Dewpoint Dewpoint Depression Visibility Wind Speed Wind Dir Waves Ship Positions

Savannah

Owner: Crescent Towing & Salvage Co Inc, New Orleans, LA. More information available from US FCC via Universal Licensing System and Coast Guard Vessel Documentation Center.

Last reported at 2017-Oct-19 05:30 UTC. Time now 2017-Oct-19 05:36 UTC.
Position N 32°05' W 081°04'.

Length 28 m; draft 4.5 m.

Type: Tug. MMSI: 367316630.

Date/timePositionNaut miles runAvg speedWind from/ knotsBaromVisibWave heightAir tempDewpointWater temp
2017-Oct-19 05:30N 32°05' W 081°04'2 2.8
2017-Oct-19 04:58N 32°05' W 081°06'1 1.2
2017-Oct-19 04:30N 32°05' W 081°06'1 2.5
2017-Oct-19 03:57N 32°05' W 081°04'0 0.0
2017-Oct-19 03:27N 32°05' W 081°04'2 3.3
2017-Oct-19 03:00N 32°05' W 081°06'2 3.1
2017-Oct-19 02:30N 32°06' W 081°07'1 1.5
2017-Oct-19 02:00N 32°06' W 081°06'2 3.3
2017-Oct-19 01:21N 32°05' W 081°04'0 0.0
2017-Oct-19 01:00N 32°05' W 081°04'3 6.5
2017-Oct-19 00:30N 32°06' W 081°07'2 3.2
2017-Oct-18 23:52N 32°08' W 081°08'0 0.9
2017-Oct-18 23:28N 32°08' W 081°09'0 0.7
2017-Oct-18 23:00N 32°08' W 081°08'2 3.3
2017-Oct-18 22:30N 32°07' W 081°07'2 4.7
2017-Oct-18 22:00N 32°05' W 081°05'3 5.4
2017-Oct-18 21:30N 32°05' W 081°02'1 2.3
2017-Oct-18 21:00N 32°05' W 081°04'0 0.1
2017-Oct-18 17:03N 32°05' W 081°04'0 0.1
2017-Oct-18 16:57N 32°05' W 081°04'0 0.0
2017-Oct-18 16:15N 32°05' W 081°04'0 0.0
2017-Oct-18 15:57N 32°05' W 081°04'3 6.8
2017-Oct-18 15:30N 32°06' W 081°07'2 3.8
2017-Oct-18 14:56N 32°08' W 081°09'1 1.3
2017-Oct-18 14:00N 32°07' W 081°08'0 0.2
2017-Oct-18 13:27N 32°07' W 081°08'0 0.0
2017-Oct-18 12:57N 32°07' W 081°08'0 0.0
2017-Oct-18 12:27N 32°07' W 081°08'0 0.0
2017-Oct-18 11:51N 32°07' W 081°08'0 0.0
2017-Oct-18 11:09N 32°07' W 081°08'0 0.1
2017-Oct-18 10:57N 32°07' W 081°08'0 0.0
2017-Oct-18 10:30N 32°07' W 081°08'0 0.9
2017-Oct-18 09:58N 32°07' W 081°08'0 0.1
2017-Oct-18 09:21N 32°07' W 081°08'0 0.1
2017-Oct-18 08:51N 32°07' W 081°08'1 2.4
2017-Oct-18 08:30N 32°07' W 081°08'4 6.8
2017-Oct-18 07:58N 32°05' W 081°04'0 0.0
2017-Oct-18 07:28N 32°05' W 081°04'0 0.0
2017-Oct-18 06:58N 32°05' W 081°04'0 0.0
2017-Oct-18 06:28N 32°05' W 081°04'0 0.0
2017-Oct-18 05:40N 32°05' W 081°04'0 0.0
2017-Oct-18 05:28N 32°05' W 081°04'0 0.0
2017-Oct-18 04:58N 32°05' W 081°04'0 0.0
2017-Oct-18 04:16N 32°05' W 081°04'0 0.0
2017-Oct-18 03:46N 32°05' W 081°04'0 0.0
2017-Oct-18 03:28N 32°05' W 081°04'0 0.0
2017-Oct-18 02:58N 32°05' W 081°04'0 0.0
2017-Oct-18 02:28N 32°05' W 081°04'0 0.0
2017-Oct-18 01:58N 32°05' W 081°04'0 0.0
2017-Oct-18 01:28N 32°05' W 081°04'0 0.0
2017-Oct-18 00:58N 32°05' W 081°04'0 0.0
2017-Oct-18 00:28N 32°05' W 081°04'0 0.0
2017-Oct-17 23:52N 32°05' W 081°04'0 0.0
2017-Oct-17 23:28N 32°05' W 081°04'0 0.0
2017-Oct-17 22:58N 32°05' W 081°04'0 0.0
2017-Oct-17 22:28N 32°05' W 081°04'0 0.0
2017-Oct-17 22:00N 32°05' W 081°04'3 6.4
2017-Oct-17 21:30N 32°06' W 081°07'1 1.5
2017-Oct-17 20:55N 32°07' W 081°08'1 2.2
2017-Oct-17 20:30N 32°06' W 081°07'3 5.3
2017-Oct-17 19:55N 32°05' W 081°04'0 0.0
2017-Oct-17 19:25N 32°05' W 081°04'0 0.0
2017-Oct-17 18:55N 32°05' W 081°04'0 0.0
2017-Oct-17 18:25N 32°05' W 081°04'0 0.0
2017-Oct-17 17:55N 32°05' W 081°04'3 6.6
2017-Oct-17 17:30N 32°06' W 081°07'2 3.2
2017-Oct-17 16:58N 32°07' W 081°08'0 0.8
2017-Oct-17 16:30N 32°08' W 081°08'2 4.3
2017-Oct-17 16:00N 32°06' W 081°07'1 1.6
2017-Oct-17 15:30N 32°05' W 081°06'3 5.1
2017-Oct-17 15:00N 32°07' W 081°08'0 0.4
2017-Oct-17 14:20N 32°08' W 081°08'0 0.1
2017-Oct-17 13:56N 32°08' W 081°08'1 1.2
2017-Oct-17 13:30N 32°08' W 081°08'1 2.1
2017-Oct-17 13:00N 32°07' W 081°08'0 0.2
2017-Oct-17 12:24N 32°07' W 081°08'0 0.0
2017-Oct-17 11:54N 32°07' W 081°08'0 0.0
2017-Oct-17 11:24N 32°07' W 081°08'0 0.0
2017-Oct-17 11:00N 32°07' W 081°08'0 0.7
2017-Oct-17 10:30N 32°07' W 081°08'1 1.9
2017-Oct-17 09:59N 32°08' W 081°08'0 0.0
2017-Oct-17 09:29N 32°08' W 081°08'2 4.8
2017-Oct-17 09:00N 32°06' W 081°07'1 1.2
2017-Oct-17 08:30N 32°05' W 081°06'2 4.5
2017-Oct-17 08:00N 32°07' W 081°08'1 1.1
2017-Oct-17 07:30N 32°08' W 081°08'1 1.5
2017-Oct-17 07:00N 32°07' W 081°08'2 2.4
2017-Oct-17 06:23N 32°08' W 081°09'1 3.9
2017-Oct-17 06:00N 32°07' W 081°08'4 6.6
2017-Oct-17 05:26N 32°05' W 081°04'0 0.0
2017-Oct-17 04:56N 32°05' W 081°04'0 0.0
2017-Oct-17 04:26N 32°05' W 081°04'0 0.0
2017-Oct-17 03:56N 32°05' W 081°04'0 0.0
2017-Oct-17 03:08N 32°05' W 081°04'0 0.0
2017-Oct-17 02:56N 32°05' W 081°04'0 0.0
2017-Oct-17 02:26N 32°05' W 081°04'0 0.0
2017-Oct-17 01:56N 32°05' W 081°04'0 0.0
2017-Oct-17 01:26N 32°05' W 081°04'0 0.0
2017-Oct-17 00:56N 32°05' W 081°04'0 0.0
2017-Oct-17 00:26N 32°05' W 081°04'0 0.0
2017-Oct-16 23:56N 32°05' W 081°04'0 0.0
2017-Oct-16 23:26N 32°05' W 081°04'0 0.0
2017-Oct-16 22:56N 32°05' W 081°04'0 0.0
2017-Oct-16 22:26N 32°05' W 081°04'0 0.0
2017-Oct-16 21:50N 32°05' W 081°04'1 3.1
2017-Oct-16 21:30N 32°05' W 081°05'1 1.8
2017-Oct-16 20:54N 32°06' W 081°06'1 1.9
2017-Oct-16 20:30N 32°06' W 081°07'1 1.1
2017-Oct-16 20:01N 32°06' W 081°07'2 2.9
2017-Oct-16 19:29N 32°08' W 081°08'0 0.5
2017-Oct-16 18:58N 32°08' W 081°08'2 4.7
2017-Oct-16 18:30N 32°06' W 081°07'3 5.6
2017-Oct-16 18:00N 32°05' W 081°04'0 0.1
2017-Oct-16 17:19N 32°05' W 081°04'0 0.0
2017-Oct-16 16:55N 32°05' W 081°04'0 0.0
2017-Oct-16 16:25N 32°05' W 081°04'2 4.1
2017-Oct-16 16:01N 32°05' W 081°06'4 7.2
2017-Oct-16 15:30N 32°08' W 081°08'0 0.1
2017-Oct-16 14:54N 32°08' W 081°09'0 0.0
2017-Oct-16 14:30N 32°08' W 081°09'0 0.0
2017-Oct-16 13:30N 32°08' W 081°09'0 0.0
2017-Oct-16 13:00N 32°08' W 081°09'0 0.0
2017-Oct-16 12:30N 32°08' W 081°09'0 0.0
2017-Oct-16 12:00N 32°08' W 081°09'0 0.0
2017-Oct-16 11:30N 32°08' W 081°09'0 0.0
2017-Oct-16 11:00N 32°08' W 081°09'0 0.0
2017-Oct-16 10:06N 32°08' W 081°09'0 0.0
2017-Oct-16 10:00N 32°08' W 081°09'0 0.5
2017-Oct-16 09:28N 32°08' W 081°09'0 0.0
2017-Oct-16 08:58N 32°08' W 081°09'0 0.5
2017-Oct-16 08:30N 32°08' W 081°08'2 3.2
2017-Oct-16 08:00N 32°07' W 081°07'1 1.2
2017-Oct-16 07:30N 32°07' W 081°08'0 0.2
2017-Oct-16 07:00N 32°07' W 081°08'1 1.8
2017-Oct-16 06:21N 32°08' W 081°09'0 0.0
2017-Oct-16 05:51N 32°08' W 081°09'1 3.1
2017-Oct-16 05:30N 32°07' W 081°08'4 8.2
2017-Oct-16 05:00N 32°05' W 081°04'0 0.3
2017-Oct-16 04:23N 32°05' W 081°04'0 0.0
2017-Oct-16 03:59N 32°05' W 081°04'0 0.0
2017-Oct-16 03:17N 32°05' W 081°04'0 0.0
2017-Oct-16 02:58N 32°05' W 081°04'0 0.0
2017-Oct-16 02:22N 32°05' W 081°04'0 0.0
2017-Oct-16 01:40N 32°05' W 081°04'0 0.0
2017-Oct-16 01:29N 32°05' W 081°04'0 0.0
2017-Oct-16 00:58N 32°05' W 081°04'0 0.0
2017-Oct-16 00:28N 32°05' W 081°04'0 0.0
2017-Oct-15 23:58N 32°05' W 081°04'0 0.0
2017-Oct-15 23:28N 32°05' W 081°04'0 0.0
2017-Oct-15 22:58N 32°05' W 081°04'0 0.0
2017-Oct-15 22:28N 32°05' W 081°04'0 0.0
2017-Oct-15 21:59N 32°05' W 081°04'0 0.0
2017-Oct-15 21:23N 32°05' W 081°04'0 0.0
2017-Oct-15 20:59N 32°05' W 081°04'0 0.0
2017-Oct-15 20:28N 32°05' W 081°04'0 0.0
2017-Oct-15 19:58N 32°05' W 081°04'0 0.0
2017-Oct-15 19:28N 32°05' W 081°04'0 0.0
2017-Oct-15 18:58N 32°05' W 081°04'0 0.0
2017-Oct-15 18:28N 32°05' W 081°04'0 0.0
2017-Oct-15 17:58N 32°05' W 081°04'0 0.0
2017-Oct-15 17:28N 32°05' W 081°04'2 3.6
2017-Oct-15 17:00N 32°05' W 081°06'3 5.7
2017-Oct-15 16:31N 32°07' W 081°08'0 0.2
2017-Oct-15 16:00N 32°07' W 081°08'0 0.5
2017-Oct-15 15:30N 32°07' W 081°08'2 4.1
2017-Oct-15 15:00N 32°06' W 081°06'2 2.1
2017-Oct-15 13:56N 32°05' W 081°04'0 0.0
2017-Oct-15 13:26N 32°05' W 081°04'0 0.0
2017-Oct-15 12:56N 32°05' W 081°04'0 0.0
2017-Oct-15 12:30N 32°05' W 081°04'4 7.9
2017-Oct-15 12:00N 32°07' W 081°08'1 1.8
2017-Oct-15 11:15N 32°08' W 081°08'0 1.5
2017-Oct-15 11:00N 32°08' W 081°08'2 3.0
2017-Oct-15 10:30N 32°07' W 081°07'2 3.0
2017-Oct-15 09:57N 32°08' W 081°08'0 1.0
2017-Oct-15 09:30N 32°08' W 081°08'0 0.6
2017-Oct-15 08:52N 32°07' W 081°08'1 2.1
2017-Oct-15 08:30N 32°08' W 081°08'1 2.3
2017-Oct-15 08:00N 32°07' W 081°08'2 3.7
2017-Oct-15 07:28N 32°05' W 081°06'2 4.1
2017-Oct-15 06:59N 32°05' W 081°04'0 0.0
2017-Oct-15 06:29N 32°05' W 081°04'0 0.0
2017-Oct-15 05:59N 32°05' W 081°04'0 0.0
2017-Oct-15 05:23N 32°05' W 081°04'0 0.0
2017-Oct-15 04:59N 32°05' W 081°04'0 0.0
2017-Oct-15 04:29N 32°05' W 081°04'0 0.0
2017-Oct-15 03:59N 32°05' W 081°04'0 0.0
2017-Oct-15 03:29N 32°05' W 081°04'0 0.0
2017-Oct-15 02:59N 32°05' W 081°04'0 0.0
2017-Oct-15 02:29N 32°05' W 081°04'0 0.0
2017-Oct-15 01:59N 32°05' W 081°04'0 0.0
2017-Oct-15 01:29N 32°05' W 081°04'0 0.0
2017-Oct-15 00:59N 32°05' W 081°04'0 0.0
2017-Oct-15 00:23N 32°05' W 081°04'0 0.0
2017-Oct-14 23:59N 32°05' W 081°04'0 0.0
2017-Oct-14 23:23N 32°05' W 081°04'0 0.0
2017-Oct-14 22:59N 32°05' W 081°04'2 4.6
2017-Oct-14 22:30N 32°06' W 081°06'3 5.8
2017-Oct-14 21:59N 32°08' W 081°09'0 0.7
2017-Oct-14 21:26N 32°08' W 081°08'0 0.7
2017-Oct-14 21:00N 32°08' W 081°08'2 4.7
2017-Oct-14 20:30N 32°06' W 081°07'1 1.9
2017-Oct-14 20:00N 32°07' W 081°08'0 0.8
2017-Oct-14 19:30N 32°07' W 081°08'0 0.0
2017-Oct-14 19:00N 32°07' W 081°08'0 0.0
2017-Oct-14 18:30N 32°07' W 081°08'0 0.8
2017-Oct-14 18:00N 32°07' W 081°08'0 0.4
2017-Oct-14 17:25N 32°08' W 081°08'1 1.2
2017-Oct-14 16:55N 32°07' W 081°08'0 0.2
2017-Oct-14 16:30N 32°07' W 081°08'0 0.6
2017-Oct-14 15:57N 32°08' W 081°08'0 0.3
2017-Oct-14 15:30N 32°07' W 081°08'3 5.1
2017-Oct-14 15:00N 32°05' W 081°06'0 0.2
2017-Oct-14 14:30N 32°05' W 081°06'0 0.0
2017-Oct-14 14:00N 32°05' W 081°06'2 3.3
2017-Oct-14 13:30N 32°05' W 081°04'1 2.1
2017-Oct-14 13:00N 32°05' W 081°03'1 2.2
2017-Oct-14 12:27N 32°05' W 081°02'2 3.7
2017-Oct-14 11:55N 32°05' W 081°04'3 7.8
2017-Oct-14 11:30N 32°06' W 081°07'1 1.6
2017-Oct-14 10:49N 32°07' W 081°08'1 2.7
2017-Oct-14 10:30N 32°07' W 081°07'3 5.8
2017-Oct-14 09:55N 32°05' W 081°04'0 0.0
2017-Oct-14 09:25N 32°05' W 081°04'0 0.0
2017-Oct-14 08:55N 32°05' W 081°04'0 0.0
2017-Oct-14 08:25N 32°05' W 081°04'0 0.0
2017-Oct-14 07:55N 32°05' W 081°04'0 0.0
2017-Oct-14 07:25N 32°05' W 081°04'0 0.0
2017-Oct-14 06:49N 32°05' W 081°04'0 0.0
2017-Oct-14 06:13N 32°05' W 081°04'0 0.0
2017-Oct-14 05:55N 32°05' W 081°04'0 0.0
2017-Oct-14 05:25N 32°05' W 081°04'0 0.0
2017-Oct-14 04:55N 32°05' W 081°04'0 0.0
2017-Oct-14 04:25N 32°05' W 081°04'0 0.0
2017-Oct-14 03:55N 32°05' W 081°04'0 0.0
2017-Oct-14 03:25N 32°05' W 081°04'0 0.0
2017-Oct-14 02:55N 32°05' W 081°04'0 0.0
2017-Oct-14 02:25N 32°05' W 081°04'0 0.0
2017-Oct-14 01:55N 32°05' W 081°04'0 0.0
2017-Oct-14 01:25N 32°05' W 081°04'0 0.0
2017-Oct-14 00:49N 32°05' W 081°04'0 0.0
2017-Oct-14 00:25N 32°05' W 081°04'0 0.0
2017-Oct-13 23:55N 32°05' W 081°04'0 0.0
2017-Oct-13 23:13N 32°05' W 081°04'0 0.0
2017-Oct-13 22:55N 32°05' W 081°04'0 0.0
2017-Oct-13 22:25N 32°05' W 081°04'0 0.0
2017-Oct-13 21:55N 32°05' W 081°04'0 0.0
2017-Oct-13 21:25N 32°05' W 081°04'0 0.0
2017-Oct-13 20:55N 32°05' W 081°04'0 0.0
2017-Oct-13 20:25N 32°05' W 081°04'0 0.0
2017-Oct-13 20:01N 32°05' W 081°04'0 0.0
2017-Oct-13 19:31N 32°05' W 081°04'0 0.0
2017-Oct-13 18:55N 32°05' W 081°04'0 0.0
2017-Oct-13 18:25N 32°05' W 081°04'0 0.0
2017-Oct-13 17:55N 32°05' W 081°04'0 0.0
2017-Oct-13 17:13N 32°05' W 081°04'0 0.0
2017-Oct-13 16:55N 32°05' W 081°04'0 0.0
2017-Oct-13 16:25N 32°05' W 081°04'0 0.0
2017-Oct-13 15:55N 32°05' W 081°04'0 0.0
2017-Oct-13 15:25N 32°05' W 081°04'0 0.0
2017-Oct-13 14:55N 32°05' W 081°04'0 0.0
2017-Oct-13 14:25N 32°05' W 081°04'0 0.0
2017-Oct-13 13:58N 32°05' W 081°04'3 7.4
2017-Oct-13 13:30N 32°07' W 081°07'1 1.3
2017-Oct-13 12:57N 32°06' W 081°07'1 2.1
2017-Oct-13 12:30N 32°07' W 081°08'0 0.6
2017-Oct-13 11:53N 32°07' W 081°08'0 0.5
2017-Oct-13 11:25N 32°07' W 081°08'0 0.0
2017-Oct-13 11:01N 32°07' W 081°08'2 3.5
2017-Oct-13 10:30N 32°06' W 081°07'2 3.3
2017-Oct-13 09:46N 32°05' W 081°04'0 0.9
2017-Oct-13 09:26N 32°05' W 081°04'0 0.0
2017-Oct-13 08:50N 32°05' W 081°04'0 0.4
2017-Oct-13 08:26N 32°05' W 081°04'0 0.0
2017-Oct-13 07:56N 32°05' W 081°04'0 0.0
2017-Oct-13 07:26N 32°05' W 081°04'0 0.0
2017-Oct-13 06:50N 32°05' W 081°04'0 0.0
2017-Oct-13 06:20N 32°05' W 081°04'0 0.0
2017-Oct-13 05:56N 32°05' W 081°04'0 0.0
2017-Oct-13 05:26N 32°05' W 081°04'0 0.0
2017-Oct-13 04:56N 32°05' W 081°04'0 0.0
2017-Oct-13 04:26N 32°05' W 081°04'0 0.0
2017-Oct-13 03:56N 32°05' W 081°04'0 0.0
2017-Oct-13 03:26N 32°05' W 081°04'0 0.0
2017-Oct-13 02:56N 32°05' W 081°04'0 0.0
2017-Oct-13 02:26N 32°05' W 081°04'0 0.0
2017-Oct-13 01:56N 32°05' W 081°04'0 0.0
2017-Oct-13 01:08N 32°05' W 081°04'0 0.0
2017-Oct-13 00:50N 32°05' W 081°04'0 0.0
2017-Oct-13 00:26N 32°05' W 081°04'0 0.0
2017-Oct-12 23:56N 32°05' W 081°04'0 0.0
2017-Oct-12 23:26N 32°05' W 081°04'0 0.0
2017-Oct-12 22:56N 32°05' W 081°04'0 0.0
2017-Oct-12 22:26N 32°05' W 081°04'0 0.0
2017-Oct-12 21:56N 32°05' W 081°04'0 0.0
2017-Oct-12 21:26N 32°05' W 081°04'0 0.0
2017-Oct-12 20:50N 32°05' W 081°04'0 0.0
2017-Oct-12 20:26N 32°05' W 081°04'0 0.0
2017-Oct-12 19:56N 32°05' W 081°04'0 0.0
2017-Oct-12 19:26N 32°05' W 081°04'0 0.0
2017-Oct-12 18:56N 32°05' W 081°04'0 0.0
2017-Oct-12 18:26N 32°05' W 081°04'0 0.0
2017-Oct-12 18:00N 32°05' W 081°04'3 6.5
2017-Oct-12 17:30N 32°06' W 081°07'2 2.9
2017-Oct-12 17:00N 32°08' W 081°08'1 1.1
2017-Oct-12 16:30N 32°07' W 081°08'3 5.8
2017-Oct-12 16:00N 32°05' W 081°06'1 2.7
2017-Oct-12 15:28N 32°05' W 081°04'0 0.0
2017-Oct-12 14:40N 32°05' W 081°04'0 0.0
2017-Oct-12 14:28N 32°05' W 081°04'0 0.0
2017-Oct-12 13:52N 32°05' W 081°04'0 0.0
2017-Oct-12 13:28N 32°05' W 081°04'0 0.0
2017-Oct-12 12:52N 32°05' W 081°04'0 0.0
2017-Oct-12 12:28N 32°05' W 081°04'0 0.0
2017-Oct-12 11:52N 32°05' W 081°04'0 0.0
2017-Oct-12 11:22N 32°05' W 081°04'0 0.0
2017-Oct-12 10:58N 32°05' W 081°04'0 0.0
2017-Oct-12 10:22N 32°05' W 081°04'0 0.0
2017-Oct-12 09:52N 32°05' W 081°04'0 0.0
2017-Oct-12 09:28N 32°05' W 081°04'4 7.6
2017-Oct-12 09:01N 32°07' W 081°07'0 0.8
2017-Oct-12 08:29N 32°07' W 081°08'1 1.9
2017-Oct-12 08:01N 32°06' W 081°07'3 5.6
2017-Oct-12 07:31N 32°05' W 081°04'0 0.8
2017-Oct-12 06:57N 32°05' W 081°04'0 0.0
2017-Oct-12 06:27N 32°05' W 081°04'0 0.0
2017-Oct-12 05:57N 32°05' W 081°04'0 0.0
2017-Oct-12 05:27N 32°05' W 081°04'0 0.0
2017-Oct-12 04:57N 32°05' W 081°04'0 0.0
2017-Oct-12 04:27N 32°05' W 081°04'0 0.0
2017-Oct-12 03:51N 32°05' W 081°04'0 0.0
2017-Oct-12 03:27N 32°05' W 081°04'0 0.0
2017-Oct-12 02:57N 32°05' W 081°04'0 0.0
2017-Oct-12 02:27N 32°05' W 081°04'0 0.0
2017-Oct-12 01:51N 32°05' W 081°04'0 0.0
2017-Oct-12 01:27N 32°05' W 081°04'0 0.0
2017-Oct-12 00:57N 32°05' W 081°04'0 0.0
2017-Oct-12 00:27N 32°05' W 081°04'0 0.0
2017-Oct-11 23:57N 32°05' W 081°04'0 0.0
2017-Oct-11 23:27N 32°05' W 081°04'0 0.0
2017-Oct-11 22:57N 32°05' W 081°04'0 0.0
2017-Oct-11 22:27N 32°05' W 081°04'0 0.0
2017-Oct-11 21:57N 32°05' W 081°04'0 0.0
2017-Oct-11 21:27N 32°05' W 081°04'0 0.0
2017-Oct-11 20:51N 32°05' W 081°04'0 0.0
2017-Oct-11 20:27N 32°05' W 081°04'0 0.0
2017-Oct-11 19:57N 32°05' W 081°04'0 0.0
2017-Oct-11 19:21N 32°05' W 081°04'0 0.0
2017-Oct-11 18:57N 32°05' W 081°04'0 0.0
2017-Oct-10 20:05N 32°05' W 081°04'0 0.1
2017-Oct-10 20:00N 32°05' W 081°04'0 0.1
2017-Oct-10 19:21N 32°05' W 081°04'1 3.7
2017-Oct-10 19:00N 32°05' W 081°05'1 2.4
2017-Oct-10 18:29N 32°06' W 081°07'0 0.0
2017-Oct-10 17:59N 32°06' W 081°07'0 0.0
2017-Oct-10 17:29N 32°06' W 081°07'0 0.0
2017-Oct-10 16:59N 32°06' W 081°07'0 0.0
2017-Oct-10 16:29N 32°06' W 081°07'1 1.2
2017-Oct-10 16:00N 32°06' W 081°07'2 4.2
2017-Oct-10 15:30N 32°08' W 081°08'0 0.2
2017-Oct-10 15:00N 32°08' W 081°08'1 0.8
2017-Oct-10 13:45N 32°07' W 081°08'0 0.0
2017-Oct-10 13:27N 32°07' W 081°08'2 3.5
2017-Oct-10 12:49N 32°05' W 081°06'1 2.7
2017-Oct-10 12:31N 32°06' W 081°07'0 0.5
2017-Oct-10 12:00N 32°06' W 081°07'1 2.2
2017-Oct-10 11:30N 32°05' W 081°06'0 0.0
2017-Oct-10 11:00N 32°05' W 081°06'0 0.0
2017-Oct-10 10:30N 32°05' W 081°06'1 1.9
2017-Oct-10 10:00N 32°06' W 081°07'2 3.3
2017-Oct-10 09:25N 32°08' W 081°08'0 0.1
2017-Oct-10 09:00N 32°08' W 081°08'0 0.0
2017-Oct-10 08:26N 32°08' W 081°08'0 0.1
2017-Oct-10 07:56N 32°08' W 081°08'0 1.1
2017-Oct-10 07:28N 32°07' W 081°08'0 0.0
2017-Oct-10 06:58N 32°07' W 081°08'0 0.0
2017-Oct-10 06:22N 32°07' W 081°08'1 2.3
2017-Oct-10 06:00N 32°08' W 081°08'0 0.0
2017-Oct-10 05:28N 32°08' W 081°09'3 7.6
2017-Oct-10 05:00N 32°05' W 081°06'2 3.0
2017-Oct-10 04:25N 32°05' W 081°04'0 0.0
2017-Oct-10 03:55N 32°05' W 081°04'0 0.0
2017-Oct-10 03:25N 32°05' W 081°04'0 0.0
2017-Oct-10 02:55N 32°05' W 081°04'0 0.0
2017-Oct-10 02:25N 32°05' W 081°04'0 0.0
2017-Oct-10 01:55N 32°05' W 081°04'0 0.0
2017-Oct-10 01:25N 32°05' W 081°04'0 0.0
2017-Oct-10 00:55N 32°05' W 081°04'0 0.0
2017-Oct-10 00:25N 32°05' W 081°04'0 0.0
2017-Oct-09 23:55N 32°05' W 081°04'0 0.0
2017-Oct-09 23:25N 32°05' W 081°04'0 0.0
2017-Oct-09 22:55N 32°05' W 081°04'0 0.0
2017-Oct-09 22:25N 32°05' W 081°04'0 0.0
2017-Oct-09 21:55N 32°05' W 081°04'0 0.0
2017-Oct-09 21:25N 32°05' W 081°04'0 0.0
2017-Oct-09 20:55N 32°05' W 081°04'0 0.0
2017-Oct-09 20:25N 32°05' W 081°04'0 0.3
2017-Oct-09 20:00N 32°05' W 081°04'0 0.2
2017-Oct-09 19:26N 32°05' W 081°04'0 0.0
2017-Oct-09 18:56N 32°05' W 081°04'0 0.0
2017-Oct-09 18:30N 32°05' W 081°04'4 8.2
2017-Oct-09 18:00N 32°07' W 081°08'1 2.0
2017-Oct-09 17:28N 32°08' W 081°09'0 0.4
2017-Oct-09 17:00N 32°08' W 081°08'2 4.9
2017-Oct-09 16:30N 32°06' W 081°07'2 3.5
2017-Oct-09 16:00N 32°05' W 081°05'1 1.9
2017-Oct-09 15:26N 32°05' W 081°06'0 0.0
2017-Oct-09 14:56N 32°05' W 081°06'0 0.0
2017-Oct-09 14:26N 32°05' W 081°06'0 0.0
2017-Oct-09 13:38N 32°05' W 081°06'0 1.1
2017-Oct-09 13:30N 32°06' W 081°06'3 6.1
2017-Oct-09 12:59N 32°08' W 081°08'0 0.2
2017-Oct-09 12:29N 32°08' W 081°08'1 1.2
2017-Oct-09 12:00N 32°08' W 081°08'4 8.6
2017-Oct-09 11:30N 32°05' W 081°04'0 0.5
2017-Oct-09 10:59N 32°05' W 081°04'0 0.0
2017-Oct-09 10:23N 32°05' W 081°04'0 0.0
2017-Oct-09 10:00N 32°05' W 081°04'0 0.0
2017-Oct-09 09:30N 32°05' W 081°04'0 0.0
2017-Oct-09 08:53N 32°05' W 081°04'0 0.0
2017-Oct-09 08:29N 32°05' W 081°04'0 0.0
2017-Oct-09 07:59N 32°05' W 081°04'0 0.0
2017-Oct-09 07:23N 32°05' W 081°04'0 0.0
2017-Oct-09 06:59N 32°05' W 081°04'0 0.0
2017-Oct-09 06:29N 32°05' W 081°04'0 0.0
2017-Oct-09 05:59N 32°05' W 081°04'  

Dump ship's entire track history